Terminal Aerodrome Forecast
Issued by NWS Mt. Holly, NJ

Home | Current Version | Previous Version | Text Only | Print | Product List | Glossary On
Versions: 1 2 3 4 5 6 7 8 9 10 11 12 13 14 15 16
408
FTUS41 KPHI 081511 AAA
TAFILG
TAF AMD
KILG 081511Z 0815/0912 02011KT P6SM SCT030 OVC035
      TEMPO 0815/0817 OVC030
     FM082100 08008KT P6SM OVC015
     FM090300 06010KT 3SM -SN OVC009=

USA.gov is the U.S. government's official web portal to all federal, state and local government web resources and services.